Time;durP1;ratioP1;P1;durP2;ratioP2;P2;SDS_P1;SDS_P2;PMS_P1;PMS_P2;Temp;Humidity;BMP_temperature;BMP_pressure;BME280_temperature;BME280_humidity;BME280_pressure;Samples;Min_cycle;Max_cycle;Signal;HPM_P1;HPM_P2
2023/06/10 00:01:30;;;;;;;11.27;7.40;;;16.30;78.00;;;;;;5134041;27;20122;-78
2023/06/10 00:03:55;;;;;;;13.65;8.35;;;16.20;78.10;;;;;;5117289;27;20030;-78
2023/06/10 00:06:24;;;;;;;12.90;8.07;;;16.30;78.00;;;;;;5134358;27;20553;-79
2023/06/10 00:08:51;;;;;;;18.73;9.45;;;16.20;78.00;;;;;;5116917;27;20081;-79
2023/06/10 00:11:17;;;;;;;11.63;8.10;;;16.10;78.20;;;;;;5117211;27;20466;-78
2023/06/10 00:13:42;;;;;;;12.82;8.07;;;16.00;78.00;;;;;;5116051;27;20071;-79
2023/06/10 00:16:08;;;;;;;14.55;8.63;;;16.00;78.10;;;;;;5134698;27;20039;-79
2023/06/10 00:18:36;;;;;;;12.30;8.02;;;16.00;78.30;;;;;;5154881;27;20047;-79
2023/06/10 00:21:04;;;;;;;10.38;7.47;;;16.00;78.20;;;;;;5154912;27;20498;-78
2023/06/10 00:23:37;;;;;;;15.05;8.45;;;16.00;78.30;;;;;;5137343;27;20031;-78
2023/06/10 00:26:03;;;;;;;11.47;6.73;;;15.90;78.40;;;;;;5137417;27;20058;-78
2023/06/10 00:28:28;;;;;;;13.52;8.50;;;15.90;78.50;;;;;;5154414;27;20485;-78
2023/06/10 00:30:54;;;;;;;11.38;7.93;;;16.00;78.20;;;;;;5154248;27;20049;-78
2023/06/10 00:33:20;;;;;;;13.18;8.07;;;16.00;78.30;;;;;;5100365;27;20046;-78
2023/06/10 00:35:46;;;;;;;10.95;7.97;;;16.00;78.10;;;;;;5099773;27;20371;-79
2023/06/10 00:38:14;;;;;;;13.48;7.95;;;15.90;78.10;;;;;;5116388;27;20046;-78
2023/06/10 00:40:43;;;;;;;11.50;7.68;;;15.90;78.20;;;;;;5116597;27;20478;-78
2023/06/10 00:43:09;;;;;;;11.50;7.32;;;15.90;78.10;;;;;;5116296;27;20046;-78
2023/06/10 00:45:35;;;;;;;12.68;8.15;;;15.90;78.00;;;;;;5116263;27;20077;-79
2023/06/10 00:48:01;;;;;;;10.27;7.20;;;15.90;78.10;;;;;;5116652;27;20070;-79
2023/06/10 00:50:27;;;;;;;14.40;8.10;;;15.90;78.00;;;;;;5119710;27;20516;-78
2023/06/10 00:52:55;;;;;;;11.40;7.57;;;15.80;77.90;;;;;;5154278;27;20035;-77
2023/06/10 00:55:21;;;;;;;12.45;8.32;;;15.90;77.80;;;;;;5154307;27;20080;-78
2023/06/10 00:57:48;;;;;;;12.35;7.68;;;15.80;77.80;;;;;;5136523;27;20490;-79
2023/06/10 01:00:16;;;;;;;11.48;8.30;;;15.80;77.70;;;;;;5153888;27;20035;-78
2023/06/10 01:02:42;;;;;;;9.60;6.57;;;15.80;77.90;;;;;;5154101;27;20491;-78
2023/06/10 01:05:11;;;;;;;12.07;7.47;;;15.80;77.80;;;;;;5124611;27;20039;-78
2023/06/10 01:07:50;;;;;;;11.80;7.22;;;15.70;77.90;;;;;;5133073;27;20524;-78
2023/06/10 01:10:21;;;;;;;11.85;8.52;;;15.70;78.00;;;;;;5133226;27;20443;-78
2023/06/10 01:12:56;;;;;;;13.23;7.68;;;15.70;77.90;;;;;;5115965;27;20061;-78
2023/06/10 01:15:22;;;;;;;9.95;7.10;;;15.70;77.90;;;;;;5132884;27;20110;-78
2023/06/10 01:17:59;;;;;;;11.00;7.78;;;15.70;78.00;;;;;;5115580;27;20047;-78
2023/06/10 01:20:29;;;;;;;12.05;7.55;;;15.70;77.90;;;;;;5116150;28;20137;-78
2023/06/10 01:22:57;;;;;;;8.65;7.30;;;15.60;77.90;;;;;;5115427;28;20465;-78
2023/06/10 01:25:27;;;;;;;10.52;7.72;;;15.60;78.00;;;;;;5132742;28;20043;-78
2023/06/10 01:28:07;;;;;;;9.20;6.72;;;15.60;77.90;;;;;;5099170;28;20080;-78
2023/06/10 01:30:43;;;;;;;11.65;7.07;;;15.60;78.00;;;;;;5132781;28;20038;-78
2023/06/10 01:33:10;;;;;;;12.05;7.55;;;15.60;78.10;;;;;;5115799;28;20061;-78
2023/06/10 01:35:38;;;;;;;10.52;7.70;;;15.60;78.10;;;;;;5132679;28;20509;-78
2023/06/10 01:38:04;;;;;;;9.55;7.20;;;15.60;78.00;;;;;;5115812;28;20104;-78
2023/06/10 01:40:32;;;;;;;12.77;8.02;;;15.50;78.10;;;;;;5131683;27;20028;-78
2023/06/10 01:42:58;;;;;;;10.23;7.70;;;15.50;78.10;;;;;;5132925;28;20395;-77
2023/06/10 01:45:23;;;;;;;9.23;7.95;;;15.50;78.00;;;;;;5115547;28;20039;-78
2023/06/10 01:47:49;;;;;;;9.55;7.30;;;15.50;77.90;;;;;;5081750;28;20039;-78
2023/06/10 01:50:16;;;;;;;10.70;7.40;;;15.40;78.00;;;;;;5115918;28;20038;-78
2023/06/10 01:52:42;;;;;;;9.77;7.30;;;15.50;78.00;;;;;;5116101;28;20043;-78
2023/06/10 01:55:08;;;;;;;9.90;7.43;;;15.40;78.00;;;;;;5081143;28;20043;-77
2023/06/10 01:57:33;;;;;;;10.75;7.50;;;15.40;77.90;;;;;;5115790;28;20043;-78
2023/06/10 01:59:59;;;;;;;11.00;7.90;;;15.40;77.90;;;;;;5115706;28;20039;-78
2023/06/10 02:02:25;;;;;;;10.38;8.07;;;15.40;77.80;;;;;;5137224;27;20038;-77
2023/06/10 02:04:50;;;;;;;11.88;7.65;;;15.40;77.90;;;;;;5120077;27;20039;-78
2023/06/10 02:07:16;;;;;;;11.27;7.65;;;15.30;77.90;;;;;;5136884;27;20449;-78
2023/06/10 02:09:42;;;;;;;9.70;7.40;;;15.30;77.90;;;;;;5119646;27;20058;-79
2023/06/10 02:12:08;;;;;;;10.80;7.95;;;15.30;77.80;;;;;;5135801;27;20550;-78
2023/06/10 02:14:34;;;;;;;12.77;7.00;;;15.30;77.80;;;;;;5119090;27;20035;-77
2023/06/10 02:17:00;;;;;;;10.25;7.38;;;15.20;77.80;;;;;;5119052;27;20126;-78
2023/06/10 02:19:26;;;;;;;14.35;7.70;;;15.20;77.90;;;;;;5119100;27;20129;-78
2023/06/10 02:21:52;;;;;;;10.35;7.95;;;15.20;77.80;;;;;;5136555;27;20039;-78
2023/06/10 02:24:18;;;;;;;11.50;7.47;;;15.10;77.90;;;;;;5119218;27;20403;-78
2023/06/10 02:26:44;;;;;;;11.98;7.93;;;15.10;77.80;;;;;;5119119;27;20039;-78
2023/06/10 02:29:09;;;;;;;11.63;8.27;;;15.10;77.90;;;;;;5135599;27;20050;-78
2023/06/10 02:31:35;;;;;;;10.27;7.38;;;15.10;77.90;;;;;;5119619;27;20566;-78
2023/06/10 02:34:02;;;;;;;10.60;6.88;;;15.10;77.80;;;;;;5118948;27;20168;-78
2023/06/10 02:36:28;;;;;;;10.82;7.30;;;15.10;77.80;;;;;;5118941;27;20039;-77
2023/06/10 02:38:54;;;;;;;11.70;8.43;;;15.00;78.00;;;;;;5119229;27;20047;-78
2023/06/10 02:41:21;;;;;;;11.77;8.43;;;15.00;78.20;;;;;;5118792;27;20081;-77
2023/06/10 02:43:47;;;;;;;11.65;7.57;;;15.00;78.10;;;;;;5102287;27;20475;-79
2023/06/10 02:46:13;;;;;;;11.15;8.00;;;15.00;78.30;;;;;;5117893;27;20043;-78
2023/06/10 02:48:45;;;;;;;10.73;7.10;;;15.00;78.30;;;;;;5102886;27;20045;-78
2023/06/10 02:51:11;;;;;;;12.77;8.30;;;15.00;78.40;;;;;;5121901;27;20039;-77
2023/06/10 02:53:37;;;;;;;12.68;8.15;;;14.90;78.40;;;;;;5120015;27;20050;-78
2023/06/10 02:56:03;;;;;;;10.82;7.43;;;14.90;78.50;;;;;;5102233;27;20038;-77
2023/06/10 02:58:29;;;;;;;10.73;8.57;;;14.90;78.40;;;;;;5118700;27;20035;-78
2023/06/10 03:00:54;;;;;;;10.85;7.57;;;14.90;78.70;;;;;;5134932;27;20074;-78
2023/06/10 03:03:22;;;;;;;8.52;7.07;;;14.80;78.60;;;;;;5134821;27;20071;-76
2023/06/10 03:05:48;;;;;;;10.65;7.78;;;14.80;78.70;;;;;;5134941;27;20043;-77
2023/06/10 03:08:14;;;;;;;12.27;7.78;;;14.80;78.70;;;;;;5134968;27;20042;-77
2023/06/10 03:10:40;;;;;;;12.32;7.35;;;14.80;78.70;;;;;;5135080;27;20064;-78
2023/06/10 03:13:05;;;;;;;9.88;7.28;;;14.70;78.70;;;;;;5117985;27;20045;-77
2023/06/10 03:15:32;;;;;;;11.32;6.82;;;14.70;78.80;;;;;;5118589;27;20343;-77
2023/06/10 03:18:00;;;;;;;8.77;6.68;;;14.60;79.10;;;;;;5134486;27;20104;-78
2023/06/10 03:20:27;;;;;;;9.52;6.82;;;14.60;79.00;;;;;;5101581;27;20035;-78
2023/06/10 03:22:53;;;;;;;11.20;7.30;;;14.60;79.00;;;;;;5101595;27;20043;-78
2023/06/10 03:25:20;;;;;;;10.88;7.78;;;14.60;79.10;;;;;;5117992;27;20042;-78
2023/06/10 03:27:46;;;;;;;12.82;8.57;;;14.60;79.40;;;;;;5118354;27;20057;-78
2023/06/10 03:30:13;;;;;;;11.80;7.32;;;14.60;79.30;;;;;;5118033;27;20042;-78
2023/06/10 03:32:40;;;;;;;10.35;7.43;;;14.50;79.30;;;;;;5143796;27;20049;-78
2023/06/10 03:35:07;;;;;;;12.05;8.02;;;14.50;79.40;;;;;;5156352;27;20043;-78
2023/06/10 03:37:33;;;;;;;10.60;6.78;;;14.50;79.40;;;;;;5121633;27;20077;-79
2023/06/10 03:39:58;;;;;;;11.90;7.25;;;14.50;79.50;;;;;;5156118;27;20484;-78
2023/06/10 03:42:24;;;;;;;12.77;7.85;;;14.50;79.40;;;;;;5138679;27;20061;-79
2023/06/10 03:44:50;;;;;;;10.32;7.40;;;14.50;79.60;;;;;;5138851;27;20387;-78
2023/06/10 03:47:16;;;;;;;10.00;7.15;;;14.50;80.00;;;;;;5154420;27;20050;-79
2023/06/10 03:49:41;;;;;;;10.00;7.65;;;14.40;79.90;;;;;;5135487;27;20043;-79
2023/06/10 03:52:07;;;;;;;11.70;7.63;;;14.30;80.20;;;;;;5126802;27;20019;-79
2023/06/10 03:54:34;;;;;;;13.52;6.90;;;14.30;80.10;;;;;;5143893;27;20051;-79
2023/06/10 03:57:00;;;;;;;10.73;6.90;;;14.40;80.30;;;;;;5144051;27;20027;-76
2023/06/10 03:59:26;;;;;;;13.57;7.22;;;14.40;80.40;;;;;;5161040;27;20019;-78
2023/06/10 04:01:52;;;;;;;12.50;7.65;;;14.50;80.10;;;;;;5143763;27;20046;-77
2023/06/10 04:04:17;;;;;;;10.35;6.75;;;14.40;80.60;;;;;;5159947;27;20035;-77
2023/06/10 04:06:44;;;;;;;10.80;7.40;;;14.40;80.70;;;;;;5143818;27;20027;-77
2023/06/10 04:09:10;;;;;;;10.05;7.90;;;14.40;80.70;;;;;;5143521;27;20020;-77
2023/06/10 04:11:36;;;;;;;8.80;6.32;;;14.40;81.20;;;;;;5159616;27;20301;-78
2023/06/10 04:14:03;;;;;;;11.05;6.80;;;14.50;80.70;;;;;;5156824;27;20072;-78
2023/06/10 04:16:28;;;;;;;10.23;7.85;;;14.50;80.90;;;;;;5122546;27;20095;-78
2023/06/10 04:18:55;;;;;;;14.15;7.22;;;14.50;80.70;;;;;;5138670;27;20054;-78
2023/06/10 04:21:21;;;;;;;10.63;6.35;;;14.50;80.60;;;;;;5138802;27;20073;-78
2023/06/10 04:23:48;;;;;;;13.50;7.18;;;14.60;80.70;;;;;;5138482;27;20066;-78
2023/06/10 04:26:14;;;;;;;9.20;6.57;;;14.60;80.60;;;;;;5122921;27;20176;-78
2023/06/10 04:28:40;;;;;;;9.90;7.28;;;14.60;81.10;;;;;;5130428;27;20043;-78
2023/06/10 04:31:05;;;;;;;9.93;7.65;;;14.60;80.80;;;;;;5134036;27;20039;-78
2023/06/10 04:33:31;;;;;;;11.43;7.60;;;14.60;81.20;;;;;;5116575;27;20035;-80
2023/06/10 04:35:57;;;;;;;13.27;6.93;;;14.60;80.90;;;;;;5117276;27;20047;-79
2023/06/10 04:38:23;;;;;;;11.18;7.03;;;14.70;81.10;;;;;;5117186;27;20039;-78
2023/06/10 04:40:49;;;;;;;12.40;6.93;;;14.70;81.90;;;;;;5116481;27;20042;-78
2023/06/10 04:43:15;;;;;;;12.32;7.65;;;14.70;81.60;;;;;;5133538;27;20039;-78
2023/06/10 04:45:44;;;;;;;9.13;6.68;;;14.70;81.30;;;;;;5099237;27;20105;-78
2023/06/10 04:48:10;;;;;;;10.40;6.45;;;14.80;81.30;;;;;;5116350;27;20042;-79
2023/06/10 04:50:37;;;;;;;9.88;6.28;;;14.90;81.30;;;;;;5116299;27;20031;-78
2023/06/10 04:53:03;;;;;;;10.60;6.55;;;14.90;81.40;;;;;;5116295;27;20054;-78
2023/06/10 04:55:29;;;;;;;9.68;6.30;;;15.00;81.60;;;;;;5111533;28;20479;-78
2023/06/10 04:57:55;;;;;;;10.48;6.32;;;15.00;81.70;;;;;;5095532;28;20042;-78
2023/06/10 05:00:21;;;;;;;11.70;6.80;;;15.00;81.40;;;;;;5095574;28;20040;-79
2023/06/10 05:02:49;;;;;;;9.57;5.97;;;15.10;81.80;;;;;;5112579;28;20040;-79
2023/06/10 05:05:18;;;;;;;10.75;6.40;;;15.10;82.00;;;;;;5080387;28;20048;-80
2023/06/10 05:07:44;;;;;;;12.80;5.88;;;15.20;82.10;;;;;;5095861;28;20045;-79
2023/06/10 05:10:12;;;;;;;13.05;7.35;;;15.20;82.20;;;;;;5115108;27;20039;-79
2023/06/10 05:12:38;;;;;;;12.02;6.50;;;15.20;82.10;;;;;;5098917;28;20062;-76
2023/06/10 05:15:06;;;;;;;9.50;6.55;;;15.30;82.40;;;;;;5132820;27;20070;-78
2023/06/10 05:17:32;;;;;;;11.40;6.55;;;15.30;82.30;;;;;;5114097;28;20051;-77
2023/06/10 05:19:57;;;;;;;11.98;6.85;;;15.40;82.40;;;;;;5131149;27;20099;-77
2023/06/10 05:22:26;;;;;;;14.85;7.15;;;15.40;82.00;;;;;;5114751;28;20043;-78
2023/06/10 05:24:52;;;;;;;10.60;6.60;;;15.50;82.00;;;;;;5097679;28;20399;-78
2023/06/10 05:27:18;;;;;;;9.45;7.07;;;15.50;82.50;;;;;;5134097;27;20558;-78
2023/06/10 05:29:43;;;;;;;14.55;7.18;;;15.50;82.50;;;;;;5114683;28;20118;-77
2023/06/10 05:32:09;;;;;;;8.88;6.95;;;15.50;82.60;;;;;;5099535;28;20475;-79
2023/06/10 05:34:35;;;;;;;11.10;7.07;;;15.50;83.10;;;;;;5134292;27;20035;-79
2023/06/10 05:37:00;;;;;;;11.35;7.30;;;15.60;82.70;;;;;;5104002;27;20035;-79
2023/06/10 05:39:26;;;;;;;11.75;7.10;;;15.60;82.50;;;;;;5121162;27;20088;-79
2023/06/10 05:41:52;;;;;;;10.23;6.05;;;15.70;82.10;;;;;;5137625;27;20512;-79
2023/06/10 05:44:17;;;;;;;12.95;6.68;;;15.70;82.10;;;;;;5119571;27;20038;-78
2023/06/10 05:46:43;;;;;;;9.32;5.72;;;15.90;82.20;;;;;;5137853;27;20043;-79
2023/06/10 05:49:09;;;;;;;9.43;6.05;;;15.90;82.30;;;;;;5120571;27;20051;-78
2023/06/10 05:51:35;;;;;;;13.77;7.78;;;16.00;82.20;;;;;;5120813;27;20558;-79
2023/06/10 05:54:00;;;;;;;8.52;6.60;;;16.00;81.90;;;;;;5102727;27;20035;-79
2023/06/10 05:56:26;;;;;;;11.13;6.07;;;16.10;82.40;;;;;;5120122;27;20075;-79
2023/06/10 05:58:52;;;;;;;10.23;5.93;;;16.20;82.20;;;;;;5104022;27;20400;-79
2023/06/10 06:01:17;;;;;;;10.10;6.80;;;16.20;82.20;;;;;;5114035;27;20034;-79
2023/06/10 06:03:43;;;;;;;13.40;7.40;;;16.30;81.90;;;;;;5105939;27;20042;-79
2023/06/10 06:06:09;;;;;;;10.35;6.90;;;16.40;81.90;;;;;;5123138;27;20045;-79
2023/06/10 06:08:35;;;;;;;7.90;5.72;;;16.50;81.60;;;;;;5123485;27;20041;-81
2023/06/10 06:11:00;;;;;;;11.27;6.47;;;16.50;81.60;;;;;;5106227;27;20091;-79
2023/06/10 06:13:26;;;;;;;9.43;6.32;;;16.70;82.10;;;;;;5140249;27;20035;-79
2023/06/10 06:15:52;;;;;;;12.85;6.70;;;16.70;81.50;;;;;;5139888;27;20034;-79
2023/06/10 06:18:18;;;;;;;9.57;6.38;;;16.80;81.60;;;;;;5119322;27;20108;-79
2023/06/10 06:20:44;;;;;;;11.52;6.68;;;16.90;81.40;;;;;;5119403;27;20035;-80
2023/06/10 06:23:10;;;;;;;8.93;6.30;;;16.90;81.20;;;;;;5119149;27;20035;-80
2023/06/10 06:25:38;;;;;;;13.25;6.60;;;17.00;81.20;;;;;;5119147;27;20045;-79
2023/06/10 06:28:08;;;;;;;10.75;6.22;;;17.10;80.80;;;;;;5136102;27;20070;-79
2023/06/10 06:30:35;;;;;;;8.52;5.95;;;17.20;80.70;;;;;;5102533;27;20035;-80
2023/06/10 06:33:01;;;;;;;13.50;6.10;;;17.30;80.70;;;;;;5118071;27;20032;-79
2023/06/10 06:35:26;;;;;;;11.77;6.75;;;17.40;80.60;;;;;;5135808;27;20043;-80
2023/06/10 06:37:52;;;;;;;9.18;6.53;;;17.50;80.10;;;;;;5118777;27;20050;-80
2023/06/10 06:40:18;;;;;;;7.93;6.10;;;17.50;79.80;;;;;;5135909;27;20177;-79
2023/06/10 06:42:44;;;;;;;7.35;5.75;;;17.60;79.80;;;;;;5135806;27;20038;-80
2023/06/10 06:45:10;;;;;;;9.77;6.00;;;17.60;79.30;;;;;;5101876;27;20039;-79
2023/06/10 06:47:35;;;;;;;8.60;5.57;;;17.70;79.60;;;;;;5134671;27;20042;-79
2023/06/10 06:50:02;;;;;;;11.30;6.38;;;17.80;79.20;;;;;;5100491;27;20394;-77
2023/06/10 06:52:28;;;;;;;9.00;5.95;;;17.90;78.80;;;;;;5118505;27;20050;-79
2023/06/10 06:54:53;;;;;;;10.32;6.47;;;18.00;78.50;;;;;;5118348;27;20043;-79
2023/06/10 06:57:19;;;;;;;10.52;5.93;;;18.10;78.70;;;;;;5135800;27;20071;-77
2023/06/10 06:59:44;;;;;;;12.57;6.57;;;18.20;78.80;;;;;;5135482;27;20427;-78
2023/06/10 07:02:10;;;;;;;10.65;5.80;;;18.20;78.40;;;;;;5118230;27;20043;-77
2023/06/10 07:04:36;;;;;;;11.32;6.10;;;18.30;78.30;;;;;;5118051;27;20031;-77
2023/06/10 07:07:02;;;;;;;8.13;5.95;;;18.50;78.20;;;;;;5117460;27;20043;-78
2023/06/10 07:09:28;;;;;;;15.57;8.63;;;18.50;78.20;;;;;;5101372;27;20398;-79
2023/06/10 07:11:53;;;;;;;9.77;6.32;;;18.60;78.10;;;;;;5100996;27;20574;-78
2023/06/10 07:14:19;;;;;;;9.65;5.97;;;18.70;78.10;;;;;;5135187;27;20043;-79
2023/06/10 07:16:46;;;;;;;9.45;6.57;;;18.80;77.90;;;;;;5118063;27;20081;-79
2023/06/10 07:19:11;;;;;;;11.05;5.85;;;18.90;77.70;;;;;;5100943;27;20286;-79
2023/06/10 07:21:37;;;;;;;10.00;5.25;;;18.90;77.30;;;;;;5135105;27;20040;-79
2023/06/10 07:24:03;;;;;;;11.65;5.65;;;19.00;77.00;;;;;;5101200;27;20075;-78
2023/06/10 07:26:29;;;;;;;10.13;6.75;;;19.00;76.50;;;;;;5134529;27;20047;-79
2023/06/10 07:28:55;;;;;;;13.95;6.75;;;19.20;76.60;;;;;;5135184;27;20554;-79
2023/06/10 07:31:21;;;;;;;8.95;5.65;;;19.30;76.50;;;;;;5118197;27;20132;-79
2023/06/10 07:33:47;;;;;;;11.48;6.55;;;19.40;76.30;;;;;;5117650;27;20475;-78
2023/06/10 07:36:12;;;;;;;11.57;5.55;;;19.50;76.40;;;;;;5134792;27;20039;-79
2023/06/10 07:38:38;;;;;;;8.02;5.25;;;19.60;76.10;;;;;;5134790;27;20038;-78
2023/06/10 07:41:04;;;;;;;9.73;6.47;;;19.70;75.80;;;;;;5099498;27;20456;-79
2023/06/10 07:43:30;;;;;;;10.80;6.28;;;19.80;75.60;;;;;;5117669;27;20130;-79
2023/06/10 07:45:55;;;;;;;11.45;6.72;;;19.90;75.50;;;;;;5117790;27;20494;-78
2023/06/10 07:48:21;;;;;;;13.30;7.57;;;20.00;75.40;;;;;;5134761;27;20506;-79
2023/06/10 07:50:47;;;;;;;9.93;6.38;;;20.10;75.30;;;;;;5134616;27;20043;-80
2023/06/10 07:53:13;;;;;;;10.43;5.68;;;20.20;74.90;;;;;;5134541;27;20039;-78
2023/06/10 07:55:38;;;;;;;8.65;6.13;;;20.30;74.50;;;;;;5100308;27;20039;-78
2023/06/10 07:58:04;;;;;;;10.80;5.75;;;20.40;74.30;;;;;;5116327;27;20051;-79
2023/06/10 08:00:30;;;;;;;8.35;5.30;;;20.40;74.10;;;;;;5100295;27;20183;-79
2023/06/10 08:02:55;;;;;;;8.98;5.53;;;20.50;73.40;;;;;;5134369;27;20043;-77
2023/06/10 08:05:21;;;;;;;9.98;5.60;;;20.60;73.00;;;;;;5100933;27;20076;-79
2023/06/10 08:07:47;;;;;;;8.80;5.60;;;20.70;72.90;;;;;;5135399;27;20134;-79
2023/06/10 08:10:12;;;;;;;10.25;6.45;;;20.70;72.80;;;;;;5118450;27;20130;-80
2023/06/10 08:12:38;;;;;;;13.40;5.28;;;20.80;72.60;;;;;;5117840;27;20046;-80
2023/06/10 08:15:04;;;;;;;7.05;5.50;;;20.90;72.40;;;;;;5116481;27;20046;-80
2023/06/10 08:17:30;;;;;;;7.40;5.78;;;21.00;72.10;;;;;;5134777;27;20035;-80
2023/06/10 08:19:56;;;;;;;12.95;5.53;;;21.10;71.80;;;;;;5135492;27;20484;-79
2023/06/10 08:22:22;;;;;;;9.70;5.72;;;21.20;71.30;;;;;;5133790;27;20160;-78
2023/06/10 08:24:48;;;;;;;9.25;6.05;;;21.40;71.00;;;;;;5116907;27;20045;-78
2023/06/10 08:27:13;;;;;;;9.52;6.13;;;21.50;70.50;;;;;;5134164;27;20482;-78
2023/06/10 08:29:40;;;;;;;8.23;5.90;;;21.50;70.30;;;;;;5117211;27;20042;-78
2023/06/10 08:32:06;;;;;;;8.90;5.75;;;21.70;69.90;;;;;;5116293;27;20043;-78
2023/06/10 08:34:35;;;;;;;8.63;5.22;;;21.80;69.90;;;;;;5134322;27;20130;-78
2023/06/10 08:37:02;;;;;;;9.07;5.22;;;21.90;69.90;;;;;;5100580;27;20070;-78
2023/06/10 08:39:31;;;;;;;10.07;5.90;;;22.10;69.50;;;;;;5117172;27;20047;-78
2023/06/10 08:42:21;;;;;;;9.35;5.55;;;22.20;68.60;;;;;;5118086;27;20035;-78
2023/06/10 08:44:51;;;;;;;12.80;5.50;;;22.40;67.90;;;;;;5117088;27;20031;-78
2023/06/10 08:47:17;;;;;;;8.48;4.43;;;22.50;67.80;;;;;;5134312;27;20398;-78
2023/06/10 08:49:47;;;;;;;8.50;5.00;;;22.50;67.00;;;;;;5117183;27;20047;-78
2023/06/10 08:52:20;;;;;;;7.07;4.90;;;22.60;66.50;;;;;;5113341;28;20492;-78
2023/06/10 08:54:52;;;;;;;8.13;5.22;;;22.80;65.80;;;;;;5096249;28;20568;-78
2023/06/10 08:57:20;;;;;;;7.35;4.80;;;22.90;64.90;;;;;;5096122;28;20506;-78
2023/06/10 08:59:46;;;;;;;6.97;4.90;;;22.90;65.40;;;;;;5112855;28;20043;-79
2023/06/10 09:02:14;;;;;;;7.55;5.05;;;23.00;64.80;;;;;;5095726;28;20032;-79
2023/06/10 09:04:43;;;;;;;6.55;4.72;;;23.20;64.60;;;;;;5096067;28;20483;-78
2023/06/10 09:07:10;;;;;;;9.63;5.07;;;23.30;64.40;;;;;;5110667;27;20043;-77
2023/06/10 09:09:36;;;;;;;7.55;5.32;;;23.30;63.00;;;;;;5115431;27;20039;-77
2023/06/10 09:12:03;;;;;;;9.68;5.40;;;23.40;62.00;;;;;;5098802;27;20052;-77
2023/06/10 09:14:29;;;;;;;9.35;4.60;;;23.40;61.80;;;;;;5132672;27;20126;-78
2023/06/10 09:16:58;;;;;;;8.32;4.82;;;23.30;60.50;;;;;;5115801;27;20156;-78
2023/06/10 09:19:27;;;;;;;8.02;5.20;;;23.50;61.00;;;;;;5132607;27;20495;-78
2023/06/10 09:21:53;;;;;;;8.80;4.85;;;23.60;60.90;;;;;;5098459;27;20072;-78
2023/06/10 09:24:20;;;;;;;9.63;4.20;;;23.70;59.50;;;;;;5115831;28;20131;-79
2023/06/10 09:26:46;;;;;;;8.88;4.53;;;23.80;58.20;;;;;;5132768;28;20039;-79
2023/06/10 09:29:11;;;;;;;9.02;5.05;;;23.90;58.50;;;;;;5098758;28;20138;-80
2023/06/10 09:31:40;;;;;;;7.78;5.30;;;24.10;58.10;;;;;;5115551;28;20509;-79
2023/06/10 09:34:11;;;;;;;6.95;4.90;;;24.20;58.30;;;;;;5118290;28;20035;-79
2023/06/10 09:36:38;;;;;;;9.52;4.90;;;24.30;58.40;;;;;;5132488;28;20051;-79
2023/06/10 09:39:05;;;;;;;6.38;4.80;;;24.40;58.30;;;;;;5115388;28;20068;-79
2023/06/10 09:41:40;;;;;;;7.80;4.95;;;24.50;58.40;;;;;;5098604;28;20037;-78
2023/06/10 09:44:15;;;;;;;9.00;5.00;;;24.70;57.90;;;;;;5115298;28;20104;-79
2023/06/10 09:46:42;;;;;;;12.57;4.80;;;24.80;58.20;;;;;;5134216;27;20483;-79
2023/06/10 09:49:07;;;;;;;6.10;4.57;;;24.90;57.00;;;;;;5097655;28;20126;-79
2023/06/10 09:51:33;;;;;;;5.47;3.70;;;24.90;56.40;;;;;;5115678;28;20134;-78
2023/06/10 09:54:03;;;;;;;6.45;3.95;;;24.90;55.30;;;;;;5132787;28;20440;-79
2023/06/10 09:56:36;;;;;;;5.53;4.30;;;25.00;53.60;;;;;;5115321;28;20095;-78
2023/06/10 09:59:03;;;;;;;5.50;3.90;;;25.10;54.00;;;;;;5132541;28;20432;-78
2023/06/10 10:01:30;;;;;;;7.63;4.10;;;25.30;54.10;;;;;;5132263;28;20039;-77
2023/06/10 10:03:56;;;;;;;7.28;4.45;;;25.40;53.10;;;;;;5114535;27;20039;-77
2023/06/10 10:06:22;;;;;;;5.72;3.97;;;25.40;53.60;;;;;;5098314;28;20046;-78
2023/06/10 10:08:49;;;;;;;7.65;4.90;;;25.50;53.40;;;;;;5115259;28;20172;-79
2023/06/10 10:11:17;;;;;;;5.80;4.05;;;25.70;52.50;;;;;;5117907;28;20035;-78
2023/06/10 10:13:46;;;;;;;6.45;4.10;;;25.70;51.60;;;;;;5115071;28;20050;-79
2023/06/10 10:16:15;;;;;;;5.43;3.80;;;25.80;51.80;;;;;;5132140;28;20043;-78
2023/06/10 10:19:07;;;;;;;6.25;4.15;;;25.90;52.40;;;;;;5132200;28;20051;-80
2023/06/10 10:21:38;;;;;;;5.50;4.05;;;26.00;49.50;;;;;;5132642;27;20039;-79
2023/06/10 10:24:17;;;;;;;5.95;3.85;;;26.10;51.20;;;;;;5120460;27;20088;-79
2023/06/10 10:26:45;;;;;;;6.40;4.00;;;26.20;49.10;;;;;;5136328;27;20147;-78
2023/06/10 10:29:27;;;;;;;6.97;4.20;;;26.30;50.60;;;;;;5136062;27;20071;-78
2023/06/10 10:31:56;;;;;;;5.07;3.97;;;26.50;50.30;;;;;;5136098;27;20042;-78
2023/06/10 10:34:49;;;;;;;7.32;3.90;;;26.50;50.20;;;;;;5121969;27;20406;-78
2023/06/10 10:37:15;;;;;;;7.90;4.65;;;26.60;49.70;;;;;;5135798;27;20067;-79
2023/06/10 10:39:41;;;;;;;6.95;4.80;;;26.70;49.30;;;;;;5121449;27;20579;-79
2023/06/10 10:42:10;;;;;;;6.15;4.10;;;26.80;49.40;;;;;;5119002;27;20039;-79
2023/06/10 10:44:38;;;;;;;7.80;4.35;;;26.80;49.10;;;;;;5118775;27;20505;-79
2023/06/10 10:47:04;;;;;;;7.13;4.43;;;26.90;49.70;;;;;;5135711;27;20043;-80
2023/06/10 10:49:32;;;;;;;6.40;4.25;;;27.10;49.10;;;;;;5118528;27;20107;-80
2023/06/10 10:51:59;;;;;;;8.13;3.97;;;27.20;49.10;;;;;;5101563;27;20039;-79
2023/06/10 10:54:37;;;;;;;7.57;3.88;;;27.30;48.90;;;;;;5135414;27;20047;-80
2023/06/10 10:57:17;;;;;;;6.00;3.90;;;27.40;46.70;;;;;;5134388;27;20087;-78
2023/06/10 10:59:51;;;;;;;6.82;3.85;;;27.50;47.00;;;;;;5116875;27;20035;-78
2023/06/10 11:02:35;;;;;;;;;;;27.60;47.30;;;;;;5150356;27;20039;-77
2023/06/10 11:05:02;;;;;;;8.13;4.25;;;27.70;47.20;;;;;;5155880;27;20391;-79
2023/06/10 11:07:30;;;;;;;5.45;4.13;;;27.80;46.70;;;;;;5138764;27;20043;-79
2023/06/10 11:10:00;;;;;;;5.28;3.83;;;27.90;46.10;;;;;;5156157;27;20046;-78
2023/06/10 11:12:38;;;;;;;3.80;3.15;;;27.90;45.40;;;;;;5138573;27;20042;-77
2023/06/10 11:15:04;;;;;;;7.03;3.70;;;28.00;44.50;;;;;;5138826;27;20042;-78
2023/06/10 11:17:30;;;;;;;4.95;3.60;;;28.10;45.00;;;;;;5138261;27;20049;-78
2023/06/10 11:19:59;;;;;;;5.43;3.65;;;28.30;44.60;;;;;;5100678;28;20039;-78
2023/06/10 11:22:24;;;;;;;5.80;3.33;;;28.40;43.60;;;;;;5114660;28;20039;-79
2023/06/10 11:24:51;;;;;;;5.65;3.53;;;28.50;44.00;;;;;;5114398;28;20385;-78
2023/06/10 11:27:17;;;;;;;6.75;3.58;;;28.40;43.30;;;;;;5097990;28;20128;-79
2023/06/10 11:30:18;;;;;;;5.35;3.97;;;28.50;42.70;;;;;;5115021;28;20061;-79
2023/06/10 11:32:44;;;;;;;4.63;3.15;;;28.80;43.00;;;;;;5097273;28;20075;-80
2023/06/10 11:35:10;;;;;;;4.63;3.25;;;28.90;42.60;;;;;;5097688;28;20388;-79
2023/06/10 11:37:36;;;;;;;4.13;3.47;;;29.10;41.50;;;;;;5135469;27;20031;-81
2023/06/10 11:40:08;;;;;;;4.70;3.65;;;29.20;42.10;;;;;;5117896;27;20050;-77
2023/06/10 11:42:40;;;;;;;5.22;2.90;;;29.30;40.40;;;;;;5136445;27;20027;-78
2023/06/10 11:45:08;;;;;;;3.45;2.97;;;29.40;38.80;;;;;;5119745;27;20391;-79
2023/06/10 11:47:34;;;;;;;6.88;3.28;;;29.40;38.80;;;;;;5105243;27;20039;-79
2023/06/10 11:49:59;;;;;;;6.05;3.22;;;29.40;38.80;;;;;;5131263;27;20055;-79
2023/06/10 11:52:32;;;;;;;3.58;3.00;;;29.60;39.20;;;;;;5115544;27;20038;-80
2023/06/10 11:54:58;;;;;;;5.07;3.22;;;29.80;38.60;;;;;;5150273;27;20078;-79
2023/06/10 11:57:23;;;;;;;7.05;3.90;;;29.90;38.80;;;;;;5152621;27;20035;-80
2023/06/10 11:59:49;;;;;;;5.10;3.42;;;30.10;38.70;;;;;;5136217;27;20050;-79
2023/06/10 12:02:16;;;;;;;5.22;3.35;;;30.30;37.60;;;;;;5143492;27;20042;-81
2023/06/10 12:04:42;;;;;;;6.13;3.42;;;30.50;36.80;;;;;;5143417;27;20045;-80
2023/06/10 12:07:08;;;;;;;6.03;3.20;;;30.50;36.30;;;;;;5125534;27;20027;-80
2023/06/10 12:09:33;;;;;;;4.13;3.00;;;30.60;37.30;;;;;;5160413;27;20043;-79
2023/06/10 12:12:06;;;;;;;3.42;3.08;;;30.70;36.80;;;;;;5160163;27;20074;-80
2023/06/10 12:14:54;;;;;;;5.45;2.97;;;30.80;36.30;;;;;;5125898;27;20051;-79
2023/06/10 12:17:22;;;;;;;6.28;3.25;;;30.90;36.70;;;;;;5138705;27;20050;-80
2023/06/10 12:19:49;;;;;;;4.55;3.05;;;31.10;36.90;;;;;;5134685;27;20051;-80
2023/06/10 12:22:15;;;;;;;6.60;3.60;;;31.30;37.80;;;;;;5117742;27;20035;-80
2023/06/10 12:24:45;;;;;;;7.60;3.28;;;31.40;36.80;;;;;;5137294;27;20027;-79
2023/06/10 12:27:12;;;;;;;7.70;3.70;;;31.40;36.60;;;;;;5135189;27;20081;-79
2023/06/10 12:29:54;;;;;;;4.10;3.22;;;31.60;37.10;;;;;;5117937;27;20088;-78
2023/06/10 12:32:22;;;;;;;6.47;3.13;;;31.50;36.10;;;;;;5117428;27;20088;-79
2023/06/10 12:34:48;;;;;;;7.03;3.30;;;31.50;34.70;;;;;;5117240;27;20093;-78
2023/06/10 12:37:14;;;;;;;5.00;3.65;;;31.50;35.30;;;;;;5116361;27;20491;-79
2023/06/10 12:39:42;;;;;;;3.58;2.90;;;31.60;36.10;;;;;;5099483;27;20124;-78
2023/06/10 12:42:09;;;;;;;4.80;3.45;;;31.70;36.60;;;;;;5116848;27;20039;-79
2023/06/10 12:44:39;;;;;;;6.78;4.07;;;31.80;37.10;;;;;;5114284;27;20036;-78